Time;durP1;ratioP1;P1;durP2;ratioP2;P2;SDS_P1;SDS_P2;PMS_P1;PMS_P2;Temp;Humidity;BMP_temperature;BMP_pressure;BME280_temperature;BME280_humidity;BME280_pressure;Samples;Min_cycle;Max_cycle;Signal;HPM_P1;HPM_P2
2022/01/29 00:01:15;;;;;;;49.22;16.02;;;;;;;4.96;76.99;101666.81;5013645;28;20058;-87
2022/01/29 00:03:42;;;;;;;50.45;19.13;;;;;;;4.96;77.05;101664.19;5013754;28;20136;-87
2022/01/29 00:06:09;;;;;;;53.85;16.58;;;;;;;4.96;76.87;101658.91;5008959;28;20045;-87
2022/01/29 00:08:36;;;;;;;48.25;17.42;;;;;;;4.94;76.82;101659.00;5003060;28;20060;-87
2022/01/29 00:11:10;;;;;;;55.10;18.75;;;;;;;4.94;77.08;101651.09;4987162;28;20048;-87
2022/01/29 00:13:38;;;;;;;47.85;15.48;;;;;;;4.95;76.80;101651.94;4987262;28;20041;-87
2022/01/29 00:16:04;;;;;;;57.40;17.98;;;;;;;4.95;76.82;101651.94;5002961;28;20060;-87
2022/01/29 00:18:32;;;;;;;51.60;14.25;;;;;;;4.95;77.00;101646.69;5012990;28;20501;-87
2022/01/29 00:20:59;;;;;;;46.95;14.68;;;;;;;4.95;76.87;101644.06;4989478;28;20050;-87
2022/01/29 00:23:25;;;;;;;54.45;16.35;;;;;;;4.94;76.97;101644.97;5005526;28;20045;-87
2022/01/29 00:25:52;;;;;;;48.72;17.88;;;;;;;4.92;76.77;101631.84;5013112;28;20449;-87
2022/01/29 00:28:21;;;;;;;44.75;14.32;;;;;;;4.93;76.67;101630.09;4990654;28;20440;-87
2022/01/29 00:30:48;;;;;;;51.92;16.35;;;;;;;4.93;76.41;101620.41;5006720;28;20053;-87
2022/01/29 00:33:15;;;;;;;51.75;14.68;;;;;;;4.92;76.69;101615.22;5007460;28;20052;-86
2022/01/29 00:35:42;;;;;;;48.97;14.48;;;;;;;4.90;76.47;101602.09;4981254;28;20104;-87
2022/01/29 00:38:09;;;;;;;57.70;19.13;;;;;;;4.85;76.16;101616.34;4984979;28;20388;-87
2022/01/29 00:40:39;;;;;;;44.42;14.43;;;;;;;4.85;76.19;101621.59;5011560;28;20108;-86
2022/01/29 00:43:06;;;;;;;54.25;16.55;;;;;;;4.83;76.20;101616.38;5002730;28;20045;-87
2022/01/29 00:45:33;;;;;;;52.95;15.68;;;;;;;4.85;76.46;101611.09;4994123;28;20046;-87
2022/01/29 00:47:59;;;;;;;45.97;16.42;;;;;;;4.84;76.42;101594.44;4988800;28;20083;-87
2022/01/29 00:50:26;;;;;;;45.95;15.50;;;;;;;4.85;76.57;101597.91;5000454;28;20467;-85
2022/01/29 00:52:53;;;;;;;63.42;17.98;;;;;;;4.86;76.58;101599.63;5004237;28;20107;-87
2022/01/29 00:55:21;;;;;;;58.78;18.95;;;;;;;4.88;76.72;101592.53;5015939;28;20493;-86
2022/01/29 00:57:48;;;;;;;56.05;19.05;;;;;;;4.88;76.75;101593.38;5003571;28;20131;-85
2022/01/29 01:00:15;;;;;;;45.75;14.07;;;;;;;4.89;76.73;101589.00;4990349;28;20049;-87
2022/01/29 01:02:42;;;;;;;42.38;15.55;;;;;;;4.89;76.58;101589.00;5006052;28;20049;-87
2022/01/29 01:05:09;;;;;;;48.90;15.52;;;;;;;4.88;76.67;101593.38;5014265;28;20064;-86
2022/01/29 01:07:37;;;;;;;50.28;16.23;;;;;;;4.88;76.72;101589.91;5004699;28;20046;-87
2022/01/29 01:10:05;;;;;;;46.17;14.65;;;;;;;4.88;76.72;101600.44;5005636;28;20041;-87
2022/01/29 01:12:32;;;;;;;50.70;15.77;;;;;;;4.88;76.75;101606.56;5000464;28;20049;-87
2022/01/29 01:14:59;;;;;;;46.25;12.80;;;;;;;4.88;76.42;101590.75;5003181;28;20105;-83
2022/01/29 01:17:26;;;;;;;65.72;19.77;;;;;;;4.87;76.58;101596.94;5011115;28;20058;-87
2022/01/29 01:19:52;;;;;;;49.10;16.02;;;;;;;4.86;76.42;101605.78;5005944;28;20057;-86
2022/01/29 01:22:20;;;;;;;51.03;16.67;;;;;;;4.87;76.38;101593.47;5005118;28;20056;-87
2022/01/29 01:24:47;;;;;;;48.08;15.57;;;;;;;4.86;76.20;101595.25;5011695;28;20049;-87
2022/01/29 01:27:15;;;;;;;49.72;14.73;;;;;;;4.84;76.37;101589.16;5016347;28;20088;-87
2022/01/29 01:29:43;;;;;;;45.63;13.93;;;;;;;4.86;76.35;101584.72;5015380;28;20140;-83
2022/01/29 01:32:11;;;;;;;49.28;14.57;;;;;;;4.85;76.51;101582.97;5004164;28;20046;-87
2022/01/29 01:34:44;;;;;;;48.80;14.65;;;;;;;4.87;76.43;101588.19;5008796;28;20107;-88
2022/01/29 01:37:17;;;;;;;51.80;15.95;;;;;;;4.85;76.39;101584.75;5018806;28;20148;-87
2022/01/29 01:39:44;;;;;;;44.72;16.08;;;;;;;4.85;76.48;101577.72;4987282;28;20045;-86
2022/01/29 01:42:11;;;;;;;52.45;16.35;;;;;;;4.85;76.56;101582.97;5016494;28;20063;-87
2022/01/29 01:44:45;;;;;;;49.50;15.10;;;;;;;4.85;76.45;101582.13;5006855;28;20073;-86
2022/01/29 01:47:13;;;;;;;41.17;11.25;;;;;;;4.86;76.69;101568.94;4988552;28;20044;-87
2022/01/29 01:49:40;;;;;;;42.55;14.00;;;;;;;4.87;76.57;101564.50;5000948;28;20041;-87
2022/01/29 01:52:10;;;;;;;46.17;14.02;;;;;;;4.87;76.59;101553.97;5014751;28;20050;-85
2022/01/29 01:54:41;;;;;;;40.08;12.85;;;;;;;4.86;76.67;101546.97;5018448;28;20041;-86
2022/01/29 01:57:08;;;;;;;40.85;13.65;;;;;;;4.88;76.72;101542.53;4988742;28;20041;-87
2022/01/29 01:59:35;;;;;;;48.42;14.38;;;;;;;4.88;76.63;101543.38;5006793;28;20064;-87
2022/01/29 02:02:03;;;;;;;49.97;15.35;;;;;;;4.87;76.58;101525.88;5002917;28;20037;-87
2022/01/29 02:04:32;;;;;;;51.33;16.10;;;;;;;4.86;76.73;101518.91;4984507;28;20044;-87
2022/01/29 02:06:59;;;;;;;47.25;15.02;;;;;;;4.87;76.79;101515.34;4996626;28;20501;-87
2022/01/29 02:09:26;;;;;;;51.53;15.18;;;;;;;4.87;76.66;101509.25;5014643;28;20050;-87
2022/01/29 02:11:56;;;;;;;38.63;13.60;;;;;;;4.85;76.74;101493.50;5005343;28;20045;-87
2022/01/29 02:14:28;;;;;;;47.38;14.35;;;;;;;4.87;76.66;101477.66;5017923;28;20045;-86
2022/01/29 02:16:55;;;;;;;52.78;15.10;;;;;;;4.85;76.93;101482.97;5002981;28;20171;-87
2022/01/29 02:19:22;;;;;;;38.30;13.30;;;;;;;4.87;76.66;101480.28;5004182;28;20045;-87
2022/01/29 02:21:48;;;;;;;43.92;14.40;;;;;;;4.86;76.57;101471.53;4985537;28;20515;-83
2022/01/29 02:24:15;;;;;;;40.67;13.40;;;;;;;4.86;76.53;101476.81;5002503;28;20044;-87
2022/01/29 02:26:42;;;;;;;46.65;16.20;;;;;;;4.86;76.54;101471.53;5002314;28;20046;-87
2022/01/29 02:29:09;;;;;;;32.55;11.65;;;;;;;4.86;76.37;101458.38;5000851;28;20048;-87
2022/01/29 02:31:48;;;;;;;40.60;14.13;;;;;;;4.81;76.65;101456.81;5000454;28;20044;-87
2022/01/29 02:34:15;;;;;;;30.83;11.32;;;;;;;4.84;76.90;101454.94;4960652;28;20048;-87
2022/01/29 02:36:43;;;;;;;43.15;14.13;;;;;;;4.86;76.74;101452.22;4999388;28;20061;-87
2022/01/29 02:39:11;;;;;;;38.58;13.68;;;;;;;4.85;76.75;101448.75;4997772;28;20053;-87
2022/01/29 02:41:41;;;;;;;41.30;14.18;;;;;;;4.85;76.88;101446.13;4989209;28;20049;-87
2022/01/29 02:44:09;;;;;;;34.83;12.52;;;;;;;4.86;76.63;101445.22;4987954;28;20038;-87
2022/01/29 02:46:49;;;;;;;37.65;12.82;;;;;;;4.86;76.66;101437.31;4998324;28;20441;-87
2022/01/29 02:49:21;;;;;;;35.10;11.65;;;;;;;4.85;76.71;101434.75;5029034;28;20034;-87
2022/01/29 02:51:53;;;;;;;34.15;11.27;;;;;;;4.83;76.44;101431.28;5004214;28;20072;-87
2022/01/29 02:54:21;;;;;;;38.13;13.32;;;;;;;4.85;76.65;101432.94;5016450;28;20053;-87
2022/01/29 02:56:48;;;;;;;43.15;14.30;;;;;;;4.84;76.43;101428.63;5000389;28;20048;-87
2022/01/29 02:59:15;;;;;;;39.63;13.23;;;;;;;4.84;76.43;101436.50;5001779;28;20492;-87
2022/01/29 03:01:42;;;;;;;35.65;12.63;;;;;;;4.82;76.87;101437.50;5014326;28;20046;-86
2022/01/29 03:04:09;;;;;;;31.40;11.73;;;;;;;4.84;76.76;101433.03;4990691;28;20046;-87
2022/01/29 03:06:36;;;;;;;41.65;14.00;;;;;;;4.85;76.46;101435.59;5010876;28;20052;-87
2022/01/29 03:09:05;;;;;;;32.55;13.63;;;;;;;4.85;76.71;101425.06;5012071;28;20042;-87
2022/01/29 03:11:32;;;;;;;37.22;13.25;;;;;;;4.84;76.79;101420.72;4986608;28;20083;-87
2022/01/29 03:13:59;;;;;;;46.25;14.93;;;;;;;4.84;76.87;101412.81;4995958;28;20053;-87
2022/01/29 03:16:26;;;;;;;32.97;12.52;;;;;;;4.84;76.55;101415.47;4985983;28;20053;-87
2022/01/29 03:18:53;;;;;;;39.10;13.07;;;;;;;4.83;76.71;101413.72;5013679;28;20104;-87
2022/01/29 03:21:20;;;;;;;35.33;12.75;;;;;;;4.84;76.66;101409.34;4995389;28;20041;-87
2022/01/29 03:23:47;;;;;;;34.47;13.02;;;;;;;4.84;76.72;101407.56;5003607;28;20048;-87
2022/01/29 03:26:13;;;;;;;37.33;12.32;;;;;;;4.84;76.39;101406.72;5011806;28;20476;-87
2022/01/29 03:28:40;;;;;;;30.40;10.77;;;;;;;4.84;76.48;101407.56;4985221;28;20520;-86
2022/01/29 03:31:07;;;;;;;29.95;10.23;;;;;;;4.84;76.46;101406.72;5010189;28;20045;-87
2022/01/29 03:33:35;;;;;;;33.55;11.55;;;;;;;4.84;76.61;101414.59;5000875;28;20045;-87
2022/01/29 03:36:02;;;;;;;32.00;12.23;;;;;;;4.83;76.29;101411.09;5011923;28;20494;-87
2022/01/29 03:38:28;;;;;;;36.65;11.45;;;;;;;4.83;76.44;101411.09;4995853;28;20159;-86
2022/01/29 03:40:57;;;;;;;33.17;12.13;;;;;;;4.83;76.23;101408.47;5002390;28;20045;-87
2022/01/29 03:43:29;;;;;;;38.13;12.75;;;;;;;4.83;76.58;101404.97;5000194;28;20061;-87
2022/01/29 03:45:56;;;;;;;31.10;12.00;;;;;;;4.82;76.31;101398.88;4999759;28;20052;-87
2022/01/29 03:48:23;;;;;;;29.92;11.10;;;;;;;4.83;76.44;101379.50;4991246;28;20699;-87
2022/01/29 03:50:49;;;;;;;30.73;12.23;;;;;;;4.81;76.35;101384.00;4996856;28;20053;-82
2022/01/29 03:53:16;;;;;;;43.83;13.20;;;;;;;4.82;76.33;101367.28;4988382;28;20056;-87
2022/01/29 03:55:43;;;;;;;39.55;12.55;;;;;;;4.82;76.40;101375.19;5002478;28;20057;-86
2022/01/29 03:58:10;;;;;;;35.60;12.40;;;;;;;4.83;76.60;101376.88;5000277;28;20076;-86
2022/01/29 04:00:36;;;;;;;37.75;12.15;;;;;;;4.82;76.69;101382.22;5005418;28;20048;-86
2022/01/29 04:03:03;;;;;;;38.25;13.50;;;;;;;4.82;76.38;101367.28;5014985;28;20498;-86
2022/01/29 04:05:30;;;;;;;38.05;13.18;;;;;;;4.77;76.33;101363.97;4985170;28;20533;-86
2022/01/29 04:07:57;;;;;;;35.42;13.63;;;;;;;4.78;76.22;101357.78;4975125;28;20136;-86
2022/01/29 04:10:27;;;;;;;34.90;13.52;;;;;;;4.78;76.52;101361.28;4987843;28;20128;-87
2022/01/29 04:12:54;;;;;;;36.55;12.57;;;;;;;4.81;76.18;101355.06;5019041;28;20073;-86
2022/01/29 04:15:23;;;;;;;35.45;12.65;;;;;;;4.77;75.57;101359.56;4986920;28;20133;-84
2022/01/29 04:17:50;;;;;;;37.78;13.77;;;;;;;4.76;75.96;101355.22;5009510;28;20038;-87
2022/01/29 04:20:17;;;;;;;33.17;12.65;;;;;;;4.75;76.18;101361.41;5002065;28;20049;-86
2022/01/29 04:22:44;;;;;;;33.42;12.32;;;;;;;4.78;76.23;101365.69;5004296;28;20046;-86
2022/01/29 04:25:10;;;;;;;37.60;14.35;;;;;;;4.76;76.04;101370.16;4979973;28;20049;-87
2022/01/29 04:27:41;;;;;;;33.63;13.10;;;;;;;4.73;76.05;101379.03;5000602;28;20408;-86
2022/01/29 04:30:23;;;;;;;36.35;12.98;;;;;;;4.73;76.27;101376.41;4969782;28;20042;-87
2022/01/29 04:35:17;;;;;;;37.40;12.77;;;;;;;4.73;76.30;101367.63;5000820;28;20497;-86
2022/01/29 04:37:44;;;;;;;41.25;13.63;;;;;;;4.74;76.13;101374.63;4991933;28;20049;-87
2022/01/29 04:40:11;;;;;;;42.25;14.43;;;;;;;4.74;75.68;101375.47;4982177;28;20045;-86
2022/01/29 04:42:38;;;;;;;44.22;15.55;;;;;;;4.72;76.00;101376.47;4986365;28;20099;-87
2022/01/29 04:45:05;;;;;;;44.92;13.98;;;;;;;4.71;76.29;101362.47;5002687;28;20358;-87
2022/01/29 04:47:33;;;;;;;44.50;15.05;;;;;;;4.68;76.02;101369.59;5011343;28;20045;-87
2022/01/29 04:49:59;;;;;;;41.83;14.35;;;;;;;4.71;76.00;101365.09;5000824;28;20044;-80
2022/01/29 04:52:26;;;;;;;49.45;17.02;;;;;;;4.72;75.84;101366.78;4987226;28;20064;-80
2022/01/29 04:54:53;;;;;;;46.22;14.55;;;;;;;4.70;75.81;101363.34;5003240;28;20457;-80
2022/01/29 04:57:19;;;;;;;41.40;15.50;;;;;;;4.71;75.74;101356.34;5018534;28;20041;-80
2022/01/29 04:59:46;;;;;;;45.53;17.00;;;;;;;4.70;75.69;101346.72;5002751;28;20052;-79
2022/01/29 05:02:13;;;;;;;44.03;15.38;;;;;;;4.69;75.96;101348.50;5001467;28;20041;-80
2022/01/29 05:04:40;;;;;;;47.70;16.70;;;;;;;4.68;75.80;101336.28;5019819;28;20050;-80
2022/01/29 05:07:06;;;;;;;46.85;17.23;;;;;;;4.65;75.57;101344.25;5002627;28;20497;-80
2022/01/29 05:09:35;;;;;;;46.53;16.92;;;;;;;4.67;75.69;101349.47;5018439;28;20501;-80
2022/01/29 05:12:02;;;;;;;50.40;17.55;;;;;;;4.64;76.04;101344.34;4986193;28;20075;-80
2022/01/29 05:27:39;;;;;;;51.85;17.27;;;;;;;4.63;75.94;101342.59;4997569;28;20908;-80
2022/01/29 05:30:06;;;;;;;49.70;16.50;;;;;;;4.61;75.99;101342.69;5016972;28;20056;-80
2022/01/29 05:32:33;;;;;;;48.92;17.15;;;;;;;4.69;75.69;101339.75;4985696;28;20085;-81
2022/01/29 05:34:59;;;;;;;46.10;16.33;;;;;;;4.63;75.66;101330.34;5003214;28;20052;-79
2022/01/29 05:37:39;;;;;;;47.10;16.45;;;;;;;4.64;75.71;101331.19;4995533;28;20046;-80
2022/01/29 05:40:07;;;;;;;44.50;14.48;;;;;;;4.65;75.60;101335.50;4986816;28;20042;-80
2022/01/29 05:42:34;;;;;;;43.55;13.10;;;;;;;4.63;75.66;101317.19;5008941;28;20056;-80
2022/01/29 05:45:01;;;;;;;40.03;14.20;;;;;;;4.63;75.50;101317.19;4988974;28;20140;-79
2022/01/29 05:47:27;;;;;;;36.75;13.38;;;;;;;4.65;75.56;101330.25;5014551;28;20048;-80
2022/01/29 05:49:54;;;;;;;45.10;13.70;;;;;;;4.60;75.47;101324.31;4989222;28;20515;-80
2022/01/29 05:52:21;;;;;;;45.25;13.63;;;;;;;4.60;75.38;101305.91;5006819;28;20056;-79
2022/01/29 05:54:48;;;;;;;39.88;13.95;;;;;;;4.61;75.61;101318.16;5002259;28;20049;-79
2022/01/29 05:57:16;;;;;;;44.22;12.27;;;;;;;4.60;75.52;101314.66;5015628;28;20056;-80
2022/01/29 05:59:48;;;;;;;33.00;12.10;;;;;;;4.57;75.51;101309.50;5005780;28;20518;-80
2022/01/29 06:02:15;;;;;;;29.42;11.00;;;;;;;4.60;75.39;101316.44;5000622;28;20042;-81
2022/01/29 06:04:42;;;;;;;37.92;12.98;;;;;;;4.59;75.58;101318.22;4986754;28;20061;-80
2022/01/29 06:07:08;;;;;;;35.95;12.05;;;;;;;4.61;75.59;101320.78;5018121;28;20048;-81
2022/01/29 06:09:35;;;;;;;34.05;11.65;;;;;;;4.62;75.66;101318.06;5005235;28;20516;-80
2022/01/29 06:12:02;;;;;;;37.35;12.88;;;;;;;4.59;75.71;101322.63;5002250;28;20065;-80
2022/01/29 06:14:29;;;;;;;36.20;12.40;;;;;;;4.55;75.45;101333.28;5004417;28;20077;-82
2022/01/29 06:16:56;;;;;;;32.42;12.07;;;;;;;4.57;75.44;101339.31;5005569;28;20042;-80
2022/01/29 06:19:23;;;;;;;36.35;12.55;;;;;;;4.56;75.58;101324.44;5002434;28;20092;-80
2022/01/29 06:21:49;;;;;;;40.92;13.05;;;;;;;4.59;75.79;101330.50;5018222;28;20046;-80
2022/01/29 06:24:16;;;;;;;30.38;11.13;;;;;;;4.59;75.74;101335.78;5006774;28;20050;-80
2022/01/29 06:26:43;;;;;;;29.95;9.90;;;;;;;4.59;75.79;101331.34;4986864;28;20152;-80
2022/01/29 06:29:10;;;;;;;33.60;11.80;;;;;;;4.60;75.87;101329.59;5004647;28;20460;-80
2022/01/29 06:31:36;;;;;;;36.35;13.07;;;;;;;4.58;75.55;101334.94;5004239;28;20053;-79
2022/01/29 06:34:03;;;;;;;31.60;11.93;;;;;;;4.68;74.90;101345.91;5003819;28;20057;-80
2022/01/29 06:36:30;;;;;;;41.10;13.60;;;;;;;4.51;75.22;101326.41;5006847;28;20404;-80
2022/01/29 06:38:57;;;;;;;32.53;11.27;;;;;;;4.60;74.97;101335.69;5003250;28;20489;-80
2022/01/29 06:41:24;;;;;;;28.10;9.93;;;;;;;4.55;75.46;101338.53;5006657;28;20079;-80
2022/01/29 06:43:50;;;;;;;29.15;9.70;;;;;;;4.54;75.05;101318.38;5000110;28;20132;-80
2022/01/29 06:46:17;;;;;;;30.63;10.18;;;;;;;4.55;75.19;101313.97;5004184;28;20104;-80
2022/01/29 06:48:44;;;;;;;40.22;11.55;;;;;;;4.54;75.35;101326.28;4988695;28;20046;-80
2022/01/29 06:51:11;;;;;;;30.67;11.20;;;;;;;4.56;75.28;101326.22;4986825;28;20374;-80
2022/01/29 06:53:42;;;;;;;32.78;10.27;;;;;;;4.51;75.08;101309.78;4986810;28;20054;-80
2022/01/29 06:56:14;;;;;;;26.42;10.05;;;;;;;4.49;74.89;101309.81;5000171;28;20405;-80
2022/01/29 06:58:41;;;;;;;27.47;10.30;;;;;;;4.52;75.16;101320.22;5016248;28;20092;-80
2022/01/29 07:01:29;;;;;;;32.55;11.50;;;;;;;4.55;74.72;101330.63;5001053;28;20061;-80
2022/01/29 07:03:56;;;;;;;31.98;10.82;;;;;;;4.50;75.01;101337.84;5015687;28;20516;-80
2022/01/29 07:06:23;;;;;;;36.33;10.75;;;;;;;4.50;75.10;101351.00;5017641;28;20042;-79
2022/01/29 07:08:50;;;;;;;32.78;10.32;;;;;;;4.49;75.49;101345.78;4990311;28;20041;-85
2022/01/29 07:11:20;;;;;;;32.28;10.55;;;;;;;4.49;75.24;101356.31;5013424;28;20493;-85
2022/01/29 07:13:47;;;;;;;40.28;12.32;;;;;;;4.55;74.82;101340.28;5003238;28;20410;-81
2022/01/29 07:16:14;;;;;;;39.22;12.60;;;;;;;4.50;74.87;101344.88;5007150;28;20049;-85
2022/01/29 07:18:41;;;;;;;40.55;12.80;;;;;;;4.48;74.95;101330.94;5015514;28;20049;-85
2022/01/29 07:21:09;;;;;;;39.95;13.20;;;;;;;4.47;74.79;101332.69;5016257;28;20057;-83
2022/01/29 07:23:35;;;;;;;42.90;14.20;;;;;;;4.42;75.03;101339.06;5015825;28;20493;-85
2022/01/29 07:26:02;;;;;;;44.45;15.75;;;;;;;4.45;74.69;101331.03;5014789;28;20092;-85
2022/01/29 07:28:29;;;;;;;46.75;15.27;;;;;;;4.47;74.88;101326.56;5015319;28;20464;-88
2022/01/29 07:30:57;;;;;;;42.88;15.50;;;;;;;4.48;74.22;101317.78;5002045;28;20070;-85
2022/01/29 07:33:25;;;;;;;43.33;15.02;;;;;;;4.41;74.53;101319.78;5001695;28;20416;-87
2022/01/29 07:35:51;;;;;;;43.45;13.63;;;;;;;4.43;74.70;101325.84;5012340;28;20056;-86
2022/01/29 07:38:19;;;;;;;49.17;15.27;;;;;;;4.39;74.91;101328.66;5004395;28;20141;-85
2022/01/29 07:40:46;;;;;;;46.90;14.35;;;;;;;4.38;74.97;101325.19;4985834;28;20042;-85
2022/01/29 07:43:13;;;;;;;44.08;14.50;;;;;;;4.44;75.07;101310.94;5014700;28;20057;-86
2022/01/29 07:45:40;;;;;;;48.13;15.20;;;;;;;4.40;75.03;101301.44;4995764;28;20049;-86
2022/01/29 07:48:06;;;;;;;45.75;15.50;;;;;;;4.39;75.06;101307.63;4983594;28;20080;-85
2022/01/29 07:50:33;;;;;;;47.63;15.18;;;;;;;4.39;75.14;101299.72;5001827;28;20048;-85
2022/01/29 07:53:00;;;;;;;49.25;15.77;;;;;;;4.37;75.29;101297.16;5003272;28;20054;-85
2022/01/29 07:55:27;;;;;;;44.05;16.40;;;;;;;4.39;75.19;101297.09;5012430;28;20050;-86
2022/01/29 07:57:54;;;;;;;46.42;15.25;;;;;;;4.38;75.50;101296.25;4981359;28;20045;-86
2022/01/29 08:00:22;;;;;;;44.13;15.18;;;;;;;4.39;75.32;101292.69;4995575;28;20381;-86
2022/01/29 08:02:48;;;;;;;42.55;14.55;;;;;;;4.35;75.77;101291.09;5007491;28;20049;-85
2022/01/29 08:05:15;;;;;;;44.65;16.25;;;;;;;4.37;75.50;101291.03;4996977;28;20099;-84
2022/01/29 08:07:42;;;;;;;42.25;14.38;;;;;;;4.37;75.78;101297.16;5011653;28;20049;-84
2022/01/29 08:10:10;;;;;;;41.08;14.90;;;;;;;4.38;75.54;101295.41;4982864;28;20549;-85
2022/01/29 08:12:37;;;;;;;49.00;16.80;;;;;;;4.40;75.67;101289.16;5018359;28;20049;-85
2022/01/29 08:15:05;;;;;;;54.22;16.30;;;;;;;4.40;75.88;101297.06;5007484;28;20042;-84
2022/01/29 08:17:32;;;;;;;46.05;15.50;;;;;;;4.42;75.94;101289.94;4989960;28;20489;-84
2022/01/29 08:20:03;;;;;;;54.05;17.27;;;;;;;4.38;75.59;101282.25;5014269;28;20037;-80
2022/01/29 08:22:29;;;;;;;46.35;16.90;;;;;;;4.41;75.60;101288.22;4993601;28;20042;-80
2022/01/29 08:24:57;;;;;;;44.67;16.83;;;;;;;4.39;75.87;101276.91;4983262;28;20075;-80
2022/01/29 08:27:24;;;;;;;42.83;16.95;;;;;;;4.39;75.74;101276.06;5012477;28;20041;-84
2022/01/29 08:29:51;;;;;;;48.00;17.88;;;;;;;4.37;75.78;101280.50;5005165;28;20709;-84
2022/01/29 08:32:18;;;;;;;50.45;16.75;;;;;;;4.38;75.88;101269.94;5006366;28;20045;-84
2022/01/29 08:34:46;;;;;;;51.38;16.33;;;;;;;4.38;75.58;101277.00;4995779;28;20050;-84
2022/01/29 08:37:13;;;;;;;52.58;15.88;;;;;;;4.37;75.81;101267.38;5017472;28;20045;-84
2022/01/29 08:39:41;;;;;;;46.78;16.08;;;;;;;4.41;75.80;101274.22;5007232;28;20088;-85
2022/01/29 08:42:08;;;;;;;53.28;16.98;;;;;;;4.38;76.01;101255.94;5016105;28;20057;-85
2022/01/29 08:44:35;;;;;;;50.92;16.67;;;;;;;4.37;76.14;101270.84;5005821;28;20045;-84
2022/01/29 08:47:03;;;;;;;47.05;16.05;;;;;;;4.38;75.96;101262.06;5000108;28;20046;-84
2022/01/29 08:49:30;;;;;;;43.60;16.23;;;;;;;4.39;76.03;101260.28;4990923;28;20117;-83
2022/01/29 08:51:57;;;;;;;44.72;17.17;;;;;;;4.39;76.06;101263.75;5006270;28;20393;-85
2022/01/29 08:54:23;;;;;;;45.63;17.13;;;;;;;4.38;76.30;101277.84;5014247;28;20048;-84
2022/01/29 08:56:50;;;;;;;45.20;15.15;;;;;;;4.39;76.22;101262.91;5019931;28;20053;-83
2022/01/29 08:59:17;;;;;;;43.22;15.95;;;;;;;4.41;76.47;101274.22;5000001;28;20403;-84
2022/01/29 09:01:43;;;;;;;43.00;16.60;;;;;;;4.39;76.59;101262.91;5016484;28;20053;-85
2022/01/29 09:04:10;;;;;;;47.55;17.73;;;;;;;4.42;76.48;101253.09;5014281;28;20100;-85
2022/01/29 09:06:37;;;;;;;45.90;15.32;;;;;;;4.46;76.47;101248.59;5015785;28;20052;-84
2022/01/29 09:09:05;;;;;;;41.22;15.20;;;;;;;4.46;76.65;101238.94;5001862;28;20451;-85
2022/01/29 09:11:33;;;;;;;45.38;17.20;;;;;;;4.44;76.80;101247.81;4995587;28;20049;-85
2022/01/29 09:14:00;;;;;;;46.78;16.52;;;;;;;4.47;76.63;101235.38;5011618;28;20477;-85
2022/01/29 09:16:26;;;;;;;45.60;15.63;;;;;;;4.49;76.84;101237.94;4993768;28;20049;-85
2022/01/29 09:18:53;;;;;;;44.10;15.57;;;;;;;4.51;76.75;101249.28;5014056;28;20385;-83
2022/01/29 09:21:20;;;;;;;42.88;15.55;;;;;;;4.52;76.62;101243.94;5001969;28;20049;-84
2022/01/29 09:23:47;;;;;;;41.03;15.35;;;;;;;4.53;76.70;101247.44;4996677;28;20076;-84
2022/01/29 09:26:14;;;;;;;42.30;15.98;;;;;;;4.54;76.77;101252.63;4987139;28;20049;-84
2022/01/29 09:28:40;;;;;;;43.50;14.80;;;;;;;4.56;76.74;101252.56;5016433;28;20045;-85
2022/01/29 09:31:07;;;;;;;38.92;14.55;;;;;;;4.56;76.61;101256.06;5015513;28;20073;-85
2022/01/29 09:33:34;;;;;;;47.85;15.98;;;;;;;4.55;76.75;101251.72;5018611;28;20049;-84
2022/01/29 09:36:01;;;;;;;39.67;14.95;;;;;;;4.60;76.72;101253.28;5012719;28;20053;-85
2022/01/29 09:38:28;;;;;;;44.35;15.98;;;;;;;4.57;76.55;101246.38;5016139;28;20041;-84
2022/01/29 09:40:55;;;;;;;45.78;15.20;;;;;;;4.57;76.35;101244.59;4998175;28;20060;-84
2022/01/29 09:43:26;;;;;;;43.55;16.17;;;;;;;4.57;76.34;101249.84;4989278;28;20049;-85
2022/01/29 09:45:53;;;;;;;35.40;14.18;;;;;;;4.51;76.44;101241.38;5016892;28;20751;-84
2022/01/29 09:48:25;;;;;;;41.50;16.27;;;;;;;4.52;76.09;101235.19;5002296;28;20104;-85
2022/01/29 09:50:52;;;;;;;37.38;14.65;;;;;;;4.58;76.08;101232.31;5000314;28;20073;-85
2022/01/29 09:53:19;;;;;;;40.50;15.15;;;;;;;4.51;76.22;101239.59;5005053;28;20052;-84
2022/01/29 09:55:46;;;;;;;40.67;15.07;;;;;;;4.52;76.46;101238.66;5002629;28;20041;-85
2022/01/29 09:58:13;;;;;;;41.28;14.88;;;;;;;4.55;76.50;101221.91;5013502;28;20079;-85
2022/01/29 10:00:40;;;;;;;37.80;13.75;;;;;;;4.54;76.54;101226.31;5015588;28;20050;-84
2022/01/29 10:03:10;;;;;;;41.25;15.82;;;;;;;4.54;76.50;101236.00;5011463;28;20071;-85
2022/01/29 10:05:42;;;;;;;43.58;16.05;;;;;;;4.53;76.29;101242.19;4993256;28;20053;-86
2022/01/29 10:08:09;;;;;;;41.33;15.65;;;;;;;4.60;76.50;101232.25;4975106;28;20108;-83
2022/01/29 10:10:47;;;;;;;43.28;15.65;;;;;;;4.50;76.64;101234.38;4964613;28;20061;-80
2022/01/29 10:13:31;;;;;;;42.40;15.05;;;;;;;4.39;77.21;101232.19;4994686;28;20554;-80
2022/01/29 10:16:09;;;;;;;44.45;15.27;;;;;;;4.46;76.34;101238.06;4962381;28;20582;-80
2022/01/29 10:18:41;;;;;;;44.80;14.93;;;;;;;4.53;76.40;101236.91;4940751;28;20477;-80
2022/01/29 10:21:22;;;;;;;41.13;14.68;;;;;;;4.40;76.71;101227.78;4958952;28;20054;-79
2022/01/29 10:24:05;;;;;;;35.10;13.45;;;;;;;4.40;76.68;101223.41;4946357;28;20070;-79
2022/01/29 10:26:37;;;;;;;40.78;15.48;;;;;;;4.44;76.73;101232.88;4948168;28;20042;-79
2022/01/29 10:29:07;;;;;;;38.55;14.10;;;;;;;4.47;76.76;101229.25;4976682;28;20648;-80
2022/01/29 10:31:47;;;;;;;43.92;15.43;;;;;;;4.44;76.41;101232.88;4961543;28;20050;-79
2022/01/29 10:34:29;;;;;;;46.95;16.67;;;;;;;4.42;77.03;101233.84;4981053;28;20085;-80
2022/01/29 10:37:11;;;;;;;42.45;14.98;;;;;;;4.39;76.73;101232.19;4959239;28;20446;-78
2022/01/29 10:39:39;;;;;;;34.22;13.18;;;;;;;4.37;77.00;101231.41;4990121;28;20423;-80
2022/01/29 10:42:31;;;;;;;41.30;13.40;;;;;;;4.30;76.98;101228.19;5009747;28;20037;-80
2022/01/29 10:45:04;;;;;;;38.42;14.70;;;;;;;4.37;77.09;101226.13;4963190;28;20053;-80
2022/01/29 10:47:55;;;;;;;34.20;13.95;;;;;;;4.32;77.27;101228.09;4981777;28;20041;-80
2022/01/29 10:50:22;;;;;;;35.97;13.48;;;;;;;4.39;77.26;101221.69;4973133;28;20401;-80
2022/01/29 10:52:49;;;;;;;33.10;14.10;;;;;;;4.42;77.33;101232.06;4989965;28;20140;-80
2022/01/29 10:55:16;;;;;;;40.40;14.48;;;;;;;4.42;77.50;101210.19;5002417;28;20053;-80
2022/01/29 10:57:48;;;;;;;40.80;15.00;;;;;;;4.47;77.01;101213.47;5016695;28;20054;-80
2022/01/29 11:00:18;;;;;;;38.50;14.88;;;;;;;4.43;77.31;101219.81;5012807;28;20037;-80
2022/01/29 11:02:45;;;;;;;35.38;12.90;;;;;;;4.45;77.17;101208.28;5019877;28;20050;-80
2022/01/29 11:05:13;;;;;;;36.42;13.32;;;;;;;4.48;77.04;101208.16;5002884;28;20053;-79
2022/01/29 11:07:45;;;;;;;41.38;13.82;;;;;;;4.45;77.37;101204.78;4985568;28;20049;-79
2022/01/29 11:10:11;;;;;;;33.00;12.80;;;;;;;4.46;77.55;101209.16;4990766;28;20048;-80
2022/01/29 11:12:43;;;;;;;38.22;13.82;;;;;;;4.45;77.44;101216.19;4999074;28;20049;-80
2022/01/29 11:15:11;;;;;;;32.17;12.90;;;;;;;4.45;77.63;101202.16;5014292;28;20136;-80
2022/01/29 11:17:38;;;;;;;34.25;13.68;;;;;;;4.49;77.50;101195.88;5005794;28;20087;-80
2022/01/29 11:20:05;;;;;;;35.38;13.23;;;;;;;4.47;77.49;101187.16;4985769;28;20050;-79
2022/01/29 11:22:38;;;;;;;35.38;12.30;;;;;;;4.44;77.48;101192.56;5003905;28;20046;-80
2022/01/29 11:25:16;;;;;;;34.53;13.27;;;;;;;4.38;78.04;101184.94;4985887;28;20382;-79
2022/01/29 11:27:44;;;;;;;37.15;13.63;;;;;;;4.46;77.62;101193.38;4976919;28;20126;-80
2022/01/29 11:30:15;;;;;;;35.05;11.75;;;;;;;4.49;77.55;101187.97;5013181;28;20122;-80
2022/01/29 11:32:54;;;;;;;32.83;12.30;;;;;;;4.47;77.70;101180.13;4996990;28;20042;-80
2022/01/29 11:35:25;;;;;;;27.02;9.73;;;;;;;4.47;77.62;101188.03;5031590;28;20049;-80
2022/01/29 11:38:01;;;;;;;30.45;11.68;;;;;;;4.46;77.77;101170.53;5027933;28;20468;-80